Strona główna
METAR-TAF:

METAR-TAF

Lotnisko :

Port lotniczy Dundee

Dundee, Szkocja

Szerokość geograficzna: 56-27N, Długość geograficzna: 003-01W, wysokość: 4 m

Aktualna obserwacja pogody

Raport powstał 33 minut temu, godzina 15:20 UTC
Cisza
Temperatura 3°C
Wilgotność 100%
Ciśnienie 1024 hPa
Widzialność 10 km lub więcej
Mało chmury na wysokości 800 ft
Rozproszone chmury na wysokości 2500 ft

METAR: EGPN 291520Z 00000KT 9999 FEW008 SCT025 03/03 Q1024

czas: 15:53 (15:53 UTC)

Prognoza

Raport powstał 1 godzina i 55 minut temu, godzina 13:58 UTC
Prognoza ważna od 29 godzina 15 UTC do 29 godzina 21 UTC
Wiatr 5 kt od zachód
Widzialność 10 km lub więcej
Rozproszone chmury na wysokości 1200 ft
Przejściowo
od 29 godzina 15 UTC do 29 godzina 21 UTC
Widzialność: 6000 m
Prawdopodobieństwo 30%
od 29 godzina 15 UTC do 29 godzina 21 UTC
Widzialność: 0300 m
Przerywane chmury na wysokości 100 ft
mgła

TAF: EGPN 291358Z 2915/2921 27005KT 9999 SCT012 TEMPO 2915/2921 6000 PROB30 2915/2921 0300 FG BKN001

Obserwacja i prognoza pogody dla ponad 4000 lotnisk (raport METAR i TAF).

Dostępne stacje oznaczono żółtymi i czerwonymi punktami na mapie.

Najedź kursorem aby zobaczyć nazwę stacji.

Kliknij aby zobaczyć obserwacje i prognozy pogody.

Aby zmienić mapę: kliknij na zielony przycisk z czarnym krzyżykiem, aby powiększyć; na zielony przycisk z myślnikiem, aby pomniejszyć; na zielone strzałki, aby przejść do map sąsiednich.


METAR-TAF: